Pagrindinis puslapis
METAR-TAF:

METAR-TAF

Oro uostai :

Ilam, Iranas

platuma: 33-35-09N, ilguma: 046-24-20E, Aukštis: 1334 m

Dabartinis oras

Ataskaita buvo paskelbta 46 minutes, ne 23:00 UTC
Vėjas 4 kt iš Šiaurės Vakarų
Temperatūra 25°C
Drėgmė 19%
Slėgis 1020 hPa
Matomumas 10 km arba daugiau
nėra debesų žemiau 1500 m ir nėra kamuolinių lietaus debesų

METAR: OICI 052300Z 32004KT CAVOK 25/M00 Q1019 A3011

Laikas: 04:16 (23:46 UTC)

Prognozė

Ataskaita buvo paskelbta 36 minutes, ne 23:10 UTC
Prognozė galioja nuo 06 metu 00 UTC su 07 metu 06 UTC
Vėjas 8 kt iš Šiaurės/Šiaurės Rytų
Matomumas 10 km arba daugiau
nėra debesų žemiau 1500 m ir nėra kamuolinių lietaus debesų
Laikinai
nuo 06 metu 08 UTC su 06 metu 14 UTC
Vėjas 18 kt iš Vakarų/Šiaurės Vakarų

TAF: OICI 052310Z 0600/0706 02008KT CAVOK TEMPO 0608/0614 30018KT

Orai ataskaitas ir orų prognozės (METAR, TAF).

turimą stotys yra geltonos ir raudonos taškus žemėlapyje.

Perkelti pele per norėdami pamatyti stoties vardą.

Tada spustelėkite, norėdami matyti oro stebėjimo ir prognozės.

Norėdami pakeisti žemėlapį: spustelėkite ant žalios mygtukų su juodo kryžiaus žemyn,; žalią mygtuką su brūkšneliu, jei norite nutolinti; arba žalių rodyklių gretimoms žemėlapius.


METAR-TAF: